Time;durP1;ratioP1;P1;durP2;ratioP2;P2;SDS_P1;SDS_P2;PMS_P1;PMS_P2;Temp;Humidity;BMP_temperature;BMP_pressure;BME280_temperature;BME280_humidity;BME280_pressure;Samples;Min_cycle;Max_cycle;Signal;HPM_P1;HPM_P2
2021/08/29 00:00:18;;;;;;;6.57;3.22;;;;;14.60;101459.00;;;;5109321;28;20653;-77
2021/08/29 00:02:44;;;;;;;6.78;2.85;;;;;14.50;101440.00;;;;5109525;28;20035;-76
2021/08/29 00:05:11;;;;;;;8.38;3.05;;;;;14.40;101460.00;;;;5109520;28;20031;-78
2021/08/29 00:07:38;;;;;;;10.07;2.70;;;;;14.30;101434.00;;;;5110000;28;20547;-76
2021/08/29 00:10:05;;;;;;;10.35;2.90;;;;;14.20;101423.00;;;;5109337;28;20100;-77
2021/08/29 00:12:32;;;;;;;12.20;3.35;;;;;14.00;101462.00;;;;5109756;28;20036;-77
2021/08/29 00:14:59;;;;;;;4.53;2.45;;;;;14.00;101466.00;;;;5109372;28;20485;-77
2021/08/29 00:17:25;;;;;;;9.10;2.58;;;;;13.90;101444.00;;;;5109964;28;20352;-76
2021/08/29 00:19:52;;;;;;;7.90;2.80;;;;;13.80;101461.00;;;;5108923;28;20102;-76
2021/08/29 00:22:19;;;;;;;9.88;2.72;;;;;13.80;101468.00;;;;5108940;28;20063;-76
2021/08/29 00:24:45;;;;;;;7.55;2.95;;;;;13.70;101440.00;;;;5109558;28;20030;-78
2021/08/29 00:29:47;;;;;;;7.82;2.88;;;;;13.80;101452.00;;;;5634305;22;20065;-78
2021/08/29 00:32:14;;;;;;;6.47;2.67;;;;;13.70;101455.00;;;;5028694;28;20049;-78
2021/08/29 00:34:41;;;;;;;7.75;3.08;;;;;13.60;101443.00;;;;5028298;28;20029;-79
2021/08/29 00:37:07;;;;;;;5.68;2.55;;;;;13.50;101459.00;;;;5028600;28;20052;-78
2021/08/29 00:39:35;;;;;;;7.45;2.92;;;;;13.50;101476.00;;;;5028339;28;20503;-80
2021/08/29 00:42:09;;;;;;;5.15;2.65;;;;;13.50;101435.00;;;;5027540;28;20116;-76
2021/08/29 00:44:37;;;;;;;16.33;3.00;;;;;13.50;101469.00;;;;5029131;28;20029;-78
2021/08/29 00:47:06;;;;;;;9.95;3.30;;;;;13.50;101450.00;;;;5028839;28;20022;-78
2021/08/29 00:49:36;;;;;;;7.45;3.03;;;;;13.40;101465.00;;;;5028277;28;20025;-78
2021/08/29 00:52:04;;;;;;;6.03;2.78;;;;;13.30;101459.00;;;;5028902;28;20112;-79
2021/08/29 00:54:31;;;;;;;8.70;2.90;;;;;13.30;101439.00;;;;5027758;28;20036;-79
2021/08/29 00:56:59;;;;;;;8.25;3.22;;;;;13.30;101439.00;;;;5028038;28;20108;-78
2021/08/29 00:59:28;;;;;;;14.40;2.83;;;;;13.30;101421.00;;;;5028254;28;20323;-78
2021/08/29 01:02:16;;;;;;;7.32;3.20;;;;;13.30;101409.00;;;;5028316;28;20651;-76
2021/08/29 01:05:09;;;;;;;3.65;2.85;;;;;13.40;101431.00;;;;5028178;28;20030;-77
2021/08/29 01:07:43;;;;;;;5.97;3.15;;;;;13.40;101443.00;;;;5027962;28;20079;-77
2021/08/29 01:10:18;;;;;;;8.73;3.92;;;;;13.50;101457.00;;;;5028574;28;20120;-77
2021/08/29 01:12:47;;;;;;;11.27;3.45;;;;;13.50;101438.00;;;;5027743;28;20500;-76
2021/08/29 01:15:14;;;;;;;8.77;3.47;;;;;13.50;101463.00;;;;5028032;28;20033;-78
2021/08/29 01:17:46;;;;;;;7.55;2.75;;;;;13.50;101439.00;;;;5028001;28;20030;-77
2021/08/29 01:20:14;;;;;;;;;;;;;13.40;101473.00;;;;5028431;28;20026;-77
2021/08/29 01:22:42;;;;;;;6.22;3.00;;;;;13.40;101466.00;;;;5028048;28;19917;-76
2021/08/29 01:25:14;;;;;;;10.80;3.85;;;;;13.40;101478.00;;;;5027892;28;20052;-76
2021/08/29 01:28:11;;;;;;;5.70;3.05;;;;;13.40;101452.00;;;;5027581;28;20488;-76
2021/08/29 01:30:38;;;;;;;10.50;2.95;;;;;13.40;101469.00;;;;5026536;28;20451;-76
2021/08/29 01:33:09;;;;;;;5.60;2.97;;;;;13.30;101483.00;;;;5027498;28;20029;-76
2021/08/29 01:35:37;;;;;;;5.20;3.13;;;;;13.30;101471.00;;;;5027535;28;20034;-76
2021/08/29 01:38:06;;;;;;;6.70;3.47;;;;;13.20;101490.00;;;;5010002;28;20029;-76
2021/08/29 01:40:33;;;;;;;9.77;3.40;;;;;13.40;101480.00;;;;5027725;28;20044;-76
2021/08/29 01:43:01;;;;;;;4.32;3.10;;;;;13.30;101489.00;;;;5027327;28;20060;-76
2021/08/29 01:45:28;;;;;;;5.53;3.30;;;;;13.30;101485.00;;;;5027196;28;20037;-76
2021/08/29 01:47:58;;;;;;;9.00;3.58;;;;;13.20;101485.00;;;;5027625;28;20029;-76
2021/08/29 01:50:27;;;;;;;9.98;3.67;;;;;13.20;101479.00;;;;5027357;28;20830;-76
2021/08/29 01:52:53;;;;;;;5.65;3.67;;;;;13.20;101500.00;;;;5026898;28;20116;-77
2021/08/29 01:55:20;;;;;;;6.60;3.72;;;;;13.30;101508.00;;;;5027304;28;20029;-77
2021/08/29 01:57:47;;;;;;;9.27;3.70;;;;;13.50;101487.00;;;;5027267;28;20030;-77
2021/08/29 02:00:13;;;;;;;7.10;3.47;;;;;13.60;101484.00;;;;5027411;28;20141;-77
2021/08/29 02:02:41;;;;;;;6.43;3.00;;;;;13.70;101464.00;;;;5027055;28;20037;-76
2021/08/29 02:05:09;;;;;;;9.50;3.45;;;;;13.70;101485.00;;;;5027359;28;20034;-77
2021/08/29 02:07:47;;;;;;;12.77;3.90;;;;;13.80;101478.00;;;;5027454;28;20836;-77
2021/08/29 02:10:16;;;;;;;6.03;3.47;;;;;13.90;101490.00;;;;5027212;28;20053;-78
2021/08/29 02:12:46;;;;;;;6.00;3.30;;;;;13.90;101473.00;;;;5026975;28;20044;-76
2021/08/29 02:15:29;;;;;;;5.37;3.03;;;;;13.80;101481.00;;;;5009281;28;20033;-77
2021/08/29 02:17:58;;;;;;;7.45;3.25;;;;;13.80;101482.00;;;;5027244;28;20033;-77
2021/08/29 02:20:26;;;;;;;6.63;2.95;;;;;13.80;101465.00;;;;5026222;28;20113;-76
2021/08/29 02:22:54;;;;;;;9.30;3.38;;;;;14.00;101493.00;;;;5026494;28;20044;-77
2021/08/29 02:25:20;;;;;;;6.93;3.17;;;;;13.90;101491.00;;;;5027200;28;20746;-76
2021/08/29 02:27:48;;;;;;;6.25;3.78;;;;;13.90;101484.00;;;;5027105;28;20067;-77
2021/08/29 02:30:16;;;;;;;8.57;3.30;;;;;13.90;101461.00;;;;5026380;28;20080;-77
2021/08/29 02:32:44;;;;;;;9.48;3.75;;;;;13.90;101494.00;;;;5027216;28;20391;-77
2021/08/29 02:35:11;;;;;;;10.13;4.03;;;;;13.80;101497.00;;;;5026828;28;20452;-77
2021/08/29 02:37:39;;;;;;;5.78;3.83;;;;;13.60;101494.00;;;;5027207;28;20025;-77
2021/08/29 02:40:08;;;;;;;9.25;3.70;;;;;13.50;101505.00;;;;5026438;28;20105;-76
2021/08/29 02:42:35;;;;;;;7.13;3.60;;;;;13.40;101507.00;;;;5026847;28;20444;-76
2021/08/29 02:45:06;;;;;;;6.25;3.70;;;;;13.40;101514.00;;;;5026494;28;20037;-77
2021/08/29 02:47:32;;;;;;;5.30;3.38;;;;;13.40;101512.00;;;;5026684;28;20136;-77
2021/08/29 02:49:59;;;;;;;5.88;4.07;;;;;13.40;101492.00;;;;5027127;28;20111;-77
2021/08/29 02:52:26;;;;;;;7.53;4.15;;;;;13.40;101472.00;;;;5026851;28;20075;-77
2021/08/29 02:54:54;;;;;;;7.15;4.38;;;;;13.30;101494.00;;;;5026750;28;20602;-76
2021/08/29 02:57:22;;;;;;;6.32;3.95;;;;;13.20;101486.00;;;;5009658;28;20128;-76
2021/08/29 02:59:49;;;;;;;10.43;5.38;;;;;13.20;101511.00;;;;5026722;28;20029;-77
2021/08/29 03:02:15;;;;;;;6.07;4.40;;;;;13.20;101492.00;;;;5026425;28;20022;-77
2021/08/29 03:04:42;;;;;;;6.35;4.28;;;;;13.20;101511.00;;;;5027327;28;20060;-76
2021/08/29 03:07:09;;;;;;;6.13;4.10;;;;;13.10;101485.00;;;;5030560;28;20088;-77
2021/08/29 03:09:36;;;;;;;8.55;4.55;;;;;13.10;101508.00;;;;5030018;28;20044;-77
2021/08/29 03:12:07;;;;;;;9.73;3.92;;;;;13.10;101486.00;;;;5030181;28;20033;-76
2021/08/29 03:14:34;;;;;;;;;;;;;13.00;101495.00;;;;5030557;28;20044;-76
2021/08/29 03:17:01;;;;;;;7.60;3.92;;;;;13.00;101489.00;;;;5030742;28;20331;-76
2021/08/29 03:19:28;;;;;;;7.57;3.80;;;;;13.10;101482.00;;;;5030275;28;20040;-76
2021/08/29 03:21:55;;;;;;;13.68;4.53;;;;;13.20;101516.00;;;;5030480;28;20040;-77
2021/08/29 03:24:22;;;;;;;7.95;4.50;;;;;13.30;101494.00;;;;5030668;28;20025;-76
2021/08/29 03:26:49;;;;;;;4.57;4.05;;;;;13.30;101537.00;;;;5029854;28;20443;-76
2021/08/29 03:29:17;;;;;;;9.73;4.45;;;;;13.20;101530.00;;;;5029582;28;20084;-77
2021/08/29 03:31:43;;;;;;;8.30;4.03;;;;;13.20;101490.00;;;;5030033;28;20065;-77
2021/08/29 03:34:14;;;;;;;5.85;4.13;;;;;13.10;101528.00;;;;5030400;28;20519;-77
2021/08/29 03:36:45;;;;;;;11.63;4.87;;;;;13.10;101499.00;;;;5030188;28;20029;-76
2021/08/29 03:39:14;;;;;;;8.07;4.28;;;;;13.10;101503.00;;;;5030050;28;21382;-77
2021/08/29 03:41:42;;;;;;;7.22;3.95;;;;;13.10;101516.00;;;;5029654;28;20029;-77
2021/08/29 03:44:11;;;;;;;9.50;4.10;;;;;13.20;101537.00;;;;5029460;28;20045;-76
2021/08/29 03:46:38;;;;;;;8.85;4.28;;;;;13.20;101530.00;;;;5029815;28;20144;-77
2021/08/29 03:49:05;;;;;;;6.93;3.80;;;;;13.20;101530.00;;;;5029689;28;20030;-76
2021/08/29 03:51:34;;;;;;;7.47;3.97;;;;;13.20;101531.00;;;;5029533;28;20076;-76
2021/08/29 03:54:06;;;;;;;6.70;4.05;;;;;13.20;101527.00;;;;5029650;28;20033;-76
2021/08/29 03:56:33;;;;;;;8.25;3.85;;;;;13.20;101529.00;;;;5029179;28;20499;-76
2021/08/29 03:59:00;;;;;;;7.80;4.03;;;;;13.20;101513.00;;;;5029771;28;20484;-77
2021/08/29 04:01:27;;;;;;;8.90;3.60;;;;;13.20;101504.00;;;;5029532;28;20060;-77
2021/08/29 04:03:53;;;;;;;7.13;4.13;;;;;13.30;101496.00;;;;5029190;28;20051;-77
2021/08/29 04:06:20;;;;;;;6.85;4.10;;;;;13.30;101507.00;;;;5029362;28;20052;-78
2021/08/29 04:08:51;;;;;;;6.68;3.95;;;;;13.50;101517.00;;;;5028877;28;20033;-77
2021/08/29 04:11:29;;;;;;;10.07;3.83;;;;;13.50;101483.00;;;;5011942;28;20034;-75
2021/08/29 04:13:57;;;;;;;5.60;4.10;;;;;13.50;101513.00;;;;5029548;28;20361;-77
2021/08/29 04:16:25;;;;;;;4.68;3.63;;;;;13.50;101510.00;;;;5028421;28;20076;-76
2021/08/29 04:18:52;;;;;;;8.00;3.80;;;;;13.50;101526.00;;;;5029791;28;20033;-76
2021/08/29 04:21:21;;;;;;;10.05;4.30;;;;;13.40;101521.00;;;;5029136;28;20108;-76
2021/08/29 04:23:48;;;;;;;8.82;4.10;;;;;13.40;101524.00;;;;5029228;28;20032;-77
2021/08/29 04:26:15;;;;;;;7.40;3.58;;;;;13.30;101529.00;;;;5029130;28;20029;-76
2021/08/29 04:28:42;;;;;;;8.35;3.92;;;;;13.30;101501.00;;;;5028755;28;20067;-76
2021/08/29 04:31:11;;;;;;;7.53;3.88;;;;;13.20;101522.00;;;;5028640;28;20053;-77
2021/08/29 04:33:39;;;;;;;11.75;4.20;;;;;13.20;101515.00;;;;5028611;28;20044;-76
2021/08/29 04:36:08;;;;;;;5.68;3.90;;;;;13.10;101526.00;;;;5028800;28;20400;-76
2021/08/29 04:38:36;;;;;;;7.03;4.10;;;;;13.00;101524.00;;;;5028933;28;20413;-76
2021/08/29 04:41:03;;;;;;;6.93;4.10;;;;;13.10;101504.00;;;;5029005;28;20033;-76
2021/08/29 04:43:30;;;;;;;11.63;4.35;;;;;13.00;101508.00;;;;5028935;28;20392;-76
2021/08/29 04:45:57;;;;;;;4.38;3.63;;;;;13.00;101514.00;;;;5028907;28;20033;-76
2021/08/29 04:48:23;;;;;;;8.98;4.00;;;;;13.00;101514.00;;;;5028878;28;20032;-76
2021/08/29 04:50:50;;;;;;;8.18;4.40;;;;;12.90;101504.00;;;;5028213;28;20120;-76
2021/08/29 04:53:17;;;;;;;10.18;4.07;;;;;12.90;101508.00;;;;5028354;28;20047;-76
2021/08/29 04:55:43;;;;;;;5.70;3.53;;;;;12.90;101496.00;;;;5028445;28;20036;-76
2021/08/29 04:58:10;;;;;;;4.45;3.17;;;;;12.80;101503.00;;;;5028456;28;20067;-76
2021/08/29 05:00:36;;;;;;;5.65;3.28;;;;;12.80;101502.00;;;;5027978;28;20029;-77
2021/08/29 05:03:03;;;;;;;8.57;3.42;;;;;12.80;101502.00;;;;5028518;28;20037;-77
2021/08/29 05:05:30;;;;;;;7.43;3.40;;;;;12.80;101522.00;;;;5028566;28;20041;-77
2021/08/29 05:07:57;;;;;;;6.00;3.83;;;;;12.80;101498.00;;;;5028805;28;20045;-77
2021/08/29 05:10:23;;;;;;;10.93;3.50;;;;;12.80;101534.00;;;;5028443;28;20033;-77
2021/08/29 05:12:51;;;;;;;5.25;3.20;;;;;12.70;101496.00;;;;5028570;28;20053;-77
2021/08/29 05:15:18;;;;;;;6.18;3.28;;;;;12.70;101524.00;;;;5028227;28;20025;-75
2021/08/29 05:17:45;;;;;;;7.40;3.42;;;;;12.60;101515.00;;;;5028220;28;20026;-76
2021/08/29 05:20:12;;;;;;;9.63;3.63;;;;;12.50;101520.00;;;;5028068;28;20033;-76
2021/08/29 05:22:38;;;;;;;6.20;3.20;;;;;12.50;101507.00;;;;5028013;28;20489;-77
2021/08/29 05:25:05;;;;;;;6.25;2.88;;;;;12.40;101527.00;;;;5028257;28;20021;-76
2021/08/29 05:27:32;;;;;;;4.35;3.08;;;;;12.30;101495.00;;;;5027877;28;20072;-78
2021/08/29 05:29:59;;;;;;;6.15;3.10;;;;;12.30;101515.00;;;;5027236;28;20041;-78
2021/08/29 05:32:25;;;;;;;6.50;3.17;;;;;12.30;101528.00;;;;5028326;28;20028;-79
2021/08/29 05:34:52;;;;;;;7.70;3.45;;;;;12.20;101506.00;;;;5027548;28;20490;-78
2021/08/29 05:37:18;;;;;;;8.00;3.28;;;;;12.10;101528.00;;;;5027912;28;20025;-78
2021/08/29 05:39:45;;;;;;;5.28;3.33;;;;;12.10;101502.00;;;;5010704;28;20037;-79
2021/08/29 05:42:11;;;;;;;6.05;3.17;;;;;12.00;101521.00;;;;5027467;28;20056;-78
2021/08/29 05:44:38;;;;;;;7.78;2.50;;;;;12.00;101540.00;;;;5027781;28;20487;-78
2021/08/29 05:47:05;;;;;;;7.38;2.90;;;;;12.10;101505.00;;;;5027599;28;20043;-79
2021/08/29 05:49:31;;;;;;;4.60;3.00;;;;;12.10;101527.00;;;;5027574;28;20021;-78
2021/08/29 05:51:58;;;;;;;6.97;3.17;;;;;12.00;101495.00;;;;5027088;28;20061;-78
2021/08/29 05:54:24;;;;;;;6.07;2.80;;;;;12.00;101515.00;;;;5027125;28;20030;-78
2021/08/29 05:56:51;;;;;;;8.85;3.13;;;;;12.00;101506.00;;;;5009405;28;20083;-78
2021/08/29 05:59:18;;;;;;;8.52;2.70;;;;;12.10;101497.00;;;;5027795;28;20076;-79
2021/08/29 06:01:44;;;;;;;4.75;2.50;;;;;12.30;101525.00;;;;5027501;28;20048;-78
2021/08/29 06:04:11;;;;;;;7.90;2.45;;;;;12.30;101543.00;;;;5027627;28;20037;-79
2021/08/29 06:06:37;;;;;;;7.15;3.08;;;;;12.30;101542.00;;;;5027866;28;20543;-78
2021/08/29 06:09:04;;;;;;;5.25;2.65;;;;;12.30;101533.00;;;;5027088;28;20029;-78
2021/08/29 06:11:31;;;;;;;8.13;2.78;;;;;12.30;101548.00;;;;5026759;28;20480;-77
2021/08/29 06:13:57;;;;;;;9.40;2.70;;;;;12.40;101520.00;;;;5009417;28;20039;-77
2021/08/29 06:16:24;;;;;;;7.03;2.78;;;;;12.40;101507.00;;;;5027238;28;20856;-77
2021/08/29 06:18:51;;;;;;;4.10;1.85;;;;;12.40;101541.00;;;;5027387;28;20029;-77
2021/08/29 06:21:18;;;;;;;5.82;2.05;;;;;12.40;101535.00;;;;5027038;28;20060;-77
2021/08/29 06:23:45;;;;;;;9.00;2.55;;;;;12.30;101512.00;;;;5026907;28;20025;-78
2021/08/29 06:26:12;;;;;;;4.50;2.25;;;;;12.20;101503.00;;;;5026673;28;20036;-77
2021/08/29 06:28:39;;;;;;;8.23;2.35;;;;;12.20;101506.00;;;;5026874;28;20477;-78
2021/08/29 06:31:06;;;;;;;5.65;2.30;;;;;12.20;101500.00;;;;5026696;28;20381;-78
2021/08/29 06:33:32;;;;;;;5.65;2.55;;;;;12.10;101520.00;;;;5027036;28;20517;-77
2021/08/29 06:35:59;;;;;;;8.45;2.75;;;;;12.10;101508.00;;;;5026526;28;20068;-77
2021/08/29 06:38:26;;;;;;;6.22;2.60;;;;;12.00;101521.00;;;;5026630;28;20041;-77
2021/08/29 06:40:52;;;;;;;8.02;2.15;;;;;12.00;101516.00;;;;5011883;28;20091;-77
2021/08/29 06:43:19;;;;;;;4.82;2.20;;;;;11.90;101515.00;;;;5031227;28;20525;-77
2021/08/29 06:45:45;;;;;;;6.70;2.10;;;;;11.90;101508.00;;;;5030888;28;20032;-77
2021/08/29 06:48:12;;;;;;;6.80;2.38;;;;;11.90;101510.00;;;;5030368;28;20112;-78
2021/08/29 06:50:39;;;;;;;7.43;2.35;;;;;11.90;101492.00;;;;5030509;28;20483;-78
2021/08/29 06:53:05;;;;;;;6.43;2.45;;;;;11.90;101468.00;;;;5030735;28;20037;-77
2021/08/29 06:55:32;;;;;;;8.57;2.42;;;;;11.80;101488.00;;;;5030709;28;20052;-78
2021/08/29 06:57:58;;;;;;;6.57;2.20;;;;;11.80;101497.00;;;;5030814;28;20484;-78
2021/08/29 07:00:25;;;;;;;8.07;3.08;;;;;11.80;101494.00;;;;5013137;28;20861;-78
2021/08/29 07:02:51;;;;;;;6.18;2.30;;;;;11.80;101505.00;;;;5030731;28;20075;-77
2021/08/29 07:05:18;;;;;;;7.05;2.13;;;;;11.80;101484.00;;;;5030543;28;20029;-77
2021/08/29 07:07:45;;;;;;;5.72;2.15;;;;;11.80;101518.00;;;;5030543;28;20506;-78
2021/08/29 07:10:11;;;;;;;10.80;2.55;;;;;11.70;101500.00;;;;5031052;28;20075;-78
2021/08/29 07:12:38;;;;;;;8.13;2.55;;;;;11.70;101463.00;;;;5030618;28;20025;-77
2021/08/29 07:15:05;;;;;;;10.70;2.83;;;;;11.70;101494.00;;;;5030648;28;20033;-77
2021/08/29 07:17:32;;;;;;;11.35;2.72;;;;;11.70;101508.00;;;;5030573;28;20436;-77
2021/08/29 07:19:59;;;;;;;9.48;2.72;;;;;11.70;101468.00;;;;5030291;28;20063;-76
2021/08/29 07:22:25;;;;;;;5.95;2.75;;;;;11.80;101475.00;;;;5030207;28;20120;-77
2021/08/29 07:24:52;;;;;;;10.02;3.25;;;;;11.70;101470.00;;;;5031117;28;20520;-77
2021/08/29 07:27:18;;;;;;;11.27;3.83;;;;;11.70;101462.00;;;;5030415;28;20551;-77
2021/08/29 07:29:45;;;;;;;6.82;3.53;;;;;11.70;101475.00;;;;5030310;28;20067;-78
2021/08/29 07:32:12;;;;;;;12.63;3.67;;;;;11.70;101487.00;;;;5030092;28;20040;-77
2021/08/29 07:34:40;;;;;;;7.88;3.70;;;;;11.70;101478.00;;;;5029910;28;20030;-78
2021/08/29 07:37:08;;;;;;;5.43;3.38;;;;;11.70;101457.00;;;;5029553;28;20037;-77
2021/08/29 07:39:34;;;;;;;7.72;2.88;;;;;11.70;101473.00;;;;5030189;28;20041;-77
2021/08/29 07:42:01;;;;;;;6.47;3.47;;;;;11.70;101463.00;;;;5011867;28;20029;-77
2021/08/29 07:44:28;;;;;;;7.00;2.90;;;;;11.70;101484.00;;;;5029753;28;20029;-77
2021/08/29 07:46:54;;;;;;;6.72;3.38;;;;;11.70;101499.00;;;;5029745;28;20164;-77
2021/08/29 07:49:21;;;;;;;11.57;3.90;;;;;11.70;101503.00;;;;5030200;28;20021;-77
2021/08/29 07:51:47;;;;;;;11.40;3.85;;;;;11.70;101468.00;;;;5030261;28;20039;-77
2021/08/29 07:54:14;;;;;;;7.40;3.40;;;;;11.70;101498.00;;;;5029937;28;20108;-78
2021/08/29 07:56:40;;;;;;;7.20;3.50;;;;;11.60;101486.00;;;;5029915;28;20384;-77
2021/08/29 07:59:07;;;;;;;8.57;3.92;;;;;11.60;101497.00;;;;5011896;28;20030;-78
2021/08/29 08:01:34;;;;;;;12.10;3.70;;;;;11.50;101486.00;;;;5029026;28;20423;-77
2021/08/29 08:04:00;;;;;;;8.75;3.40;;;;;11.50;101481.00;;;;5028524;28;20028;-77
2021/08/29 08:06:27;;;;;;;11.18;3.58;;;;;11.50;101503.00;;;;5029035;28;20026;-77
2021/08/29 08:08:57;;;;;;;10.70;3.50;;;;;11.60;101469.00;;;;5029678;28;20025;-78
2021/08/29 08:11:24;;;;;;;7.20;3.35;;;;;11.60;101469.00;;;;5029705;28;20033;-77
2021/08/29 08:13:50;;;;;;;7.65;3.38;;;;;11.50;101466.00;;;;5028891;28;20034;-78
2021/08/29 08:16:17;;;;;;;13.60;3.85;;;;;11.60;101488.00;;;;5029776;28;20021;-77
2021/08/29 08:18:44;;;;;;;8.82;3.63;;;;;11.60;101488.00;;;;5029225;28;20634;-76
2021/08/29 08:21:10;;;;;;;8.05;3.35;;;;;11.60;101492.00;;;;5029100;28;20431;-77
2021/08/29 08:23:37;;;;;;;9.90;3.88;;;;;11.50;101494.00;;;;5028727;28;20466;-78
2021/08/29 08:26:04;;;;;;;7.28;3.58;;;;;11.50;101495.00;;;;5028912;28;20030;-78
2021/08/29 08:28:30;;;;;;;9.15;3.78;;;;;11.50;101483.00;;;;5028762;28;20067;-77
2021/08/29 08:30:57;;;;;;;6.15;3.30;;;;;11.50;101506.00;;;;5028748;28;20100;-77
2021/08/29 08:33:23;;;;;;;10.00;3.50;;;;;11.60;101488.00;;;;5028551;28;20108;-77
2021/08/29 08:35:50;;;;;;;11.25;3.25;;;;;11.60;101490.00;;;;5010999;28;20087;-77
2021/08/29 08:38:17;;;;;;;10.30;3.30;;;;;11.60;101512.00;;;;5028853;28;20040;-78
2021/08/29 08:40:43;;;;;;;5.82;3.08;;;;;11.60;101489.00;;;;5028707;28;20025;-77
2021/08/29 08:43:11;;;;;;;5.28;3.15;;;;;11.60;101510.00;;;;5028627;28;20072;-77
2021/08/29 08:45:38;;;;;;;10.95;3.55;;;;;11.60;101482.00;;;;5028636;28;20124;-78
2021/08/29 08:48:06;;;;;;;11.13;2.60;;;;;11.60;101482.00;;;;5011006;28;20030;-77
2021/08/29 08:50:35;;;;;;;8.18;2.78;;;;;11.70;101506.00;;;;5028541;28;20155;-77
2021/08/29 08:53:04;;;;;;;8.15;2.88;;;;;11.60;101526.00;;;;5028720;28;20477;-77
2021/08/29 08:55:32;;;;;;;10.23;3.33;;;;;11.70;101514.00;;;;5028322;28;20029;-77
2021/08/29 08:57:59;;;;;;;5.32;2.53;;;;;11.70;101510.00;;;;5028157;28;20095;-78
2021/08/29 09:00:26;;;;;;;7.72;2.95;;;;;11.70;101516.00;;;;5028288;28;20030;-77
2021/08/29 09:02:54;;;;;;;5.40;2.42;;;;;11.70;101501.00;;;;5028498;28;20037;-78
2021/08/29 09:05:22;;;;;;;9.18;2.53;;;;;11.60;101527.00;;;;5028460;28;20096;-77
2021/08/29 09:07:52;;;;;;;10.73;2.97;;;;;11.60;101518.00;;;;5028829;28;20072;-77
2021/08/29 09:10:18;;;;;;;10.57;3.00;;;;;11.60;101504.00;;;;5028223;28;20033;-77
2021/08/29 09:13:14;;;;;;;6.13;2.35;;;;;11.60;101516.00;;;;5028134;28;20037;-77
2021/08/29 09:15:41;;;;;;;7.45;2.95;;;;;11.50;101509.00;;;;5007733;28;20526;-76
2021/08/29 09:18:11;;;;;;;9.13;3.13;;;;;11.40;101494.00;;;;5010416;28;20120;-77
2021/08/29 09:20:41;;;;;;;7.95;2.88;;;;;11.40;101512.00;;;;5028311;28;20036;-77
2021/08/29 09:23:11;;;;;;;8.77;2.90;;;;;11.40;101531.00;;;;5028141;28;20045;-77
2021/08/29 09:25:41;;;;;;;8.25;2.60;;;;;11.40;101528.00;;;;5010345;28;20567;-77
2021/08/29 09:28:13;;;;;;;7.57;2.72;;;;;11.40;101525.00;;;;5027883;28;20069;-77
2021/08/29 09:30:46;;;;;;;5.15;2.30;;;;;11.30;101510.00;;;;5027208;28;20049;-76
2021/08/29 09:33:13;;;;;;;8.10;3.20;;;;;11.30;101505.00;;;;5028038;28;20026;-77
2021/08/29 09:35:40;;;;;;;8.32;2.97;;;;;11.20;101527.00;;;;5009817;28;20025;-77
2021/08/29 09:38:11;;;;;;;9.50;2.70;;;;;11.20;101523.00;;;;5028121;28;20468;-77
2021/08/29 09:40:39;;;;;;;9.27;3.10;;;;;11.20;101535.00;;;;5028481;28;20033;-77
2021/08/29 09:43:07;;;;;;;7.55;2.95;;;;;11.30;101505.00;;;;5027841;28;20033;-77
2021/08/29 09:45:36;;;;;;;9.60;2.80;;;;;11.20;101502.00;;;;5027517;28;20057;-78
2021/08/29 09:48:05;;;;;;;10.00;3.50;;;;;11.10;101532.00;;;;5027615;28;20108;-77
2021/08/29 09:50:34;;;;;;;10.13;2.92;;;;;11.20;101531.00;;;;5027752;28;20036;-78
2021/08/29 09:53:04;;;;;;;6.40;3.10;;;;;11.30;101514.00;;;;5027903;28;20172;-77
2021/08/29 09:55:39;;;;;;;7.13;2.92;;;;;11.30;101537.00;;;;5027849;28;20029;-77
2021/08/29 09:58:24;;;;;;;6.93;3.22;;;;;11.40;101544.00;;;;5027535;28;20029;-77
2021/08/29 10:01:08;;;;;;;8.80;3.08;;;;;11.40;101546.00;;;;5027074;28;20057;-77
2021/08/29 10:03:53;;;;;;;10.75;3.25;;;;;11.50;101530.00;;;;5027423;28;20057;-77
2021/08/29 10:06:22;;;;;;;4.10;2.45;;;;;11.60;101522.00;;;;5028363;28;20021;-76
2021/08/29 10:08:54;;;;;;;9.30;2.60;;;;;11.60;101527.00;;;;5027299;28;20029;-78
2021/08/29 10:11:23;;;;;;;8.27;2.72;;;;;11.70;101540.00;;;;5027281;28;20087;-77
2021/08/29 10:13:51;;;;;;;6.95;2.58;;;;;11.80;101524.00;;;;5027106;28;20033;-78
2021/08/29 10:16:23;;;;;;;5.20;2.67;;;;;12.00;101552.00;;;;5026850;28;20480;-78
2021/08/29 10:18:54;;;;;;;6.70;2.72;;;;;12.10;101554.00;;;;5027347;28;20128;-78
2021/08/29 10:21:23;;;;;;;4.50;3.08;;;;;12.20;101521.00;;;;5026773;28;20038;-77
2021/08/29 10:23:53;;;;;;;13.40;2.95;;;;;12.30;101552.00;;;;5026922;28;20029;-79
2021/08/29 10:26:23;;;;;;;5.88;2.38;;;;;12.30;101551.00;;;;5026633;28;20060;-78
2021/08/29 10:29:07;;;;;;;10.07;3.10;;;;;12.40;101542.00;;;;5026949;28;20551;-78
2021/08/29 10:32:27;;;;;;;9.25;3.30;;;;;12.40;101533.00;;;;5009331;28;20234;-78
2021/08/29 10:34:54;;;;;;;8.55;2.88;;;;;12.50;101547.00;;;;4927304;29;20052;-77
2021/08/29 10:37:22;;;;;;;8.20;3.05;;;;;12.60;101542.00;;;;5019197;28;20516;-78
2021/08/29 10:39:49;;;;;;;8.73;2.90;;;;;12.80;101571.00;;;;5026766;28;20029;-78
2021/08/29 10:42:16;;;;;;;10.20;3.15;;;;;13.00;101556.00;;;;5026940;28;20033;-79
2021/08/29 10:44:43;;;;;;;8.57;3.15;;;;;13.40;101538.00;;;;5026742;28;20033;-81
2021/08/29 10:47:10;;;;;;;10.70;3.28;;;;;13.70;101543.00;;;;5026595;28;20030;-78
2021/08/29 10:49:37;;;;;;;10.15;3.60;;;;;13.80;101537.00;;;;5026720;28;20120;-79
2021/08/29 10:52:04;;;;;;;8.27;3.22;;;;;14.00;101560.00;;;;5026280;28;20500;-79
2021/08/29 10:54:31;;;;;;;5.82;2.60;;;;;14.00;101532.00;;;;5008854;28;20034;-78
2021/08/29 10:56:58;;;;;;;6.60;2.63;;;;;14.20;101527.00;;;;5026383;28;20104;-78
2021/08/29 10:59:26;;;;;;;6.65;2.45;;;;;14.40;101555.00;;;;5026866;28;20065;-79
2021/08/29 11:01:55;;;;;;;9.18;3.10;;;;;14.60;101543.00;;;;5027570;28;20075;-79
2021/08/29 11:04:28;;;;;;;5.82;2.60;;;;;14.80;101553.00;;;;5009145;28;20576;-79
2021/08/29 11:06:59;;;;;;;9.57;4.68;;;;;15.10;101526.00;;;;5026251;28;20033;-79
2021/08/29 11:09:35;;;;;;;;;;;;;15.60;101547.00;;;;5026665;28;20091;-78
2021/08/29 11:12:02;;;;;;;7.38;2.80;;;;;15.80;101520.00;;;;5026179;28;20269;-79
2021/08/29 11:14:38;;;;;;;6.70;2.40;;;;;17.00;101542.00;;;;5026170;28;20041;-79
2021/08/29 11:17:15;;;;;;;6.82;3.25;;;;;20.90;101356.00;;;;5026226;28;20031;-79
2021/08/29 11:19:44;;;;;;;5.22;2.65;;;;;23.20;101308.00;;;;5026163;28;20032;-79
2021/08/29 11:22:13;;;;;;;8.82;2.80;;;;;24.10;101323.00;;;;5026182;28;20558;-77
2021/08/29 11:25:11;;;;;;;7.22;2.20;;;;;25.00;101343.00;;;;5026569;28;20029;-78
2021/08/29 11:27:44;;;;;;;7.97;2.50;;;;;24.40;101344.00;;;;5030084;28;20029;-78
2021/08/29 11:30:15;;;;;;;8.93;2.42;;;;;24.70;101342.00;;;;5030135;28;20132;-78
2021/08/29 11:32:46;;;;;;;;;;;;;26.40;101336.00;;;;5012880;28;20033;-78
2021/08/29 11:35:18;;;;;;;4.85;2.28;;;;;25.20;101337.00;;;;5029845;28;19913;-79
2021/08/29 11:38:03;;;;;;;16.33;2.47;;;;;25.80;101339.00;;;;5030623;28;20042;-79
2021/08/29 11:40:48;;;;;;;12.43;5.88;;;;;26.60;101329.00;;;;5029901;28;20500;-79
2021/08/29 11:43:22;;;;;;;5.45;3.78;;;;;26.50;101326.00;;;;5012132;28;20419;-78
2021/08/29 11:46:16;;;;;;;5.70;3.13;;;;;27.30;101358.00;;;;5029729;28;20613;-78
2021/08/29 11:48:59;;;;;;;22.80;9.35;;;;;27.20;101358.00;;;;5029529;28;20025;-79
2021/08/29 11:51:37;;;;;;;4.47;2.80;;;;;27.00;101351.00;;;;5030054;28;20029;-79
2021/08/29 11:54:07;;;;;;;4.82;2.47;;;;;26.90;101365.00;;;;5029675;28;20060;-78
2021/08/29 11:56:35;;;;;;;8.90;2.70;;;;;27.50;101371.00;;;;5029990;28;20388;-79
2021/08/29 11:59:09;;;;;;;4.90;2.60;;;;;27.60;101371.00;;;;5029742;28;20849;-78
2021/08/29 12:01:37;;;;;;;5.65;2.80;;;;;27.60;101389.00;;;;5029355;28;20427;-79
2021/08/29 12:04:04;;;;;;;8.13;2.80;;;;;28.10;101377.00;;;;5028983;28;20026;-82
2021/08/29 12:06:47;;;;;;;2.67;1.80;;;;;28.40;101377.00;;;;5028709;28;20373;-78
2021/08/29 12:09:36;;;;;;;3.90;2.38;;;;;28.90;101336.00;;;;5028143;28;20032;-78
2021/08/29 12:12:04;;;;;;;4.43;1.92;;;;;28.20;101340.00;;;;5028529;28;20037;-79
2021/08/29 12:14:31;;;;;;;4.22;1.90;;;;;28.30;101369.00;;;;5029266;28;20025;-77
2021/08/29 12:17:00;;;;;;;3.40;2.10;;;;;28.40;101395.00;;;;5029247;28;20030;-75
2021/08/29 12:19:29;;;;;;;4.03;2.10;;;;;28.40;101389.00;;;;5028428;28;20037;-78